createdAt,value
2022-12-20T00:01:24.465Z,96387.75
2022-12-20T00:06:26.726Z,96383.59
2022-12-20T00:11:28.961Z,96386.38
2022-12-20T00:16:30.855Z,96375.63
2022-12-20T00:21:34.267Z,96374.59
2022-12-20T00:26:36.323Z,96367.91
2022-12-20T00:31:38.051Z,96365.19
2022-12-20T00:36:40.173Z,96364.38
2022-12-20T00:41:42.814Z,96351.81
2022-12-20T00:46:44.484Z,96360.19
2022-12-20T00:51:46.364Z,96363.50
2022-12-20T00:56:48.001Z,96354.53
2022-12-20T01:01:49.716Z,96344.50
2022-12-20T01:06:51.397Z,96338.44
2022-12-20T01:11:53.367Z,96341.72
2022-12-20T01:16:55.098Z,96338.03
2022-12-20T01:21:56.836Z,96344.31
2022-12-20T01:26:58.735Z,96340.09
2022-12-20T01:32:01.086Z,96336.34
2022-12-20T01:37:03.193Z,96341.84
2022-12-20T01:42:05.410Z,96336.38
2022-12-20T01:47:07.566Z,96330.88
2022-12-20T01:52:13.104Z,96333.00
2022-12-20T01:57:18.845Z,96323.94
2022-12-20T02:02:20.522Z,96317.09
2022-12-20T02:07:29.612Z,96316.56
2022-12-20T02:12:41.356Z,96295.59
2022-12-20T02:17:51.901Z,96299.81
2022-12-20T02:23:15.569Z,96293.56
2022-12-20T02:28:55.511Z,96298.41
2022-12-20T02:33:58.769Z,96292.03
2022-12-20T02:39:00.411Z,96285.97
2022-12-20T02:44:09.276Z,96280.72
2022-12-20T02:49:16.520Z,96277.94
2022-12-20T02:54:19.217Z,96276.97
2022-12-20T02:59:27.762Z,96283.72
2022-12-20T03:04:34.794Z,96278.50
2022-12-20T03:09:40.379Z,96269.66
2022-12-20T03:14:42.459Z,96272.47
2022-12-20T03:19:45.528Z,96262.91
2022-12-20T03:24:47.226Z,96263.63
2022-12-20T03:29:49.056Z,96273.72
2022-12-20T03:34:51.306Z,96269.22
2022-12-20T03:40:01.734Z,96259.66
2022-12-20T03:45:04.159Z,96260.00
2022-12-20T03:50:07.375Z,96249.13
2022-12-20T03:55:10.577Z,96247.50
2022-12-20T04:00:15.816Z,96257.91
2022-12-20T04:05:21.324Z,96257.84
2022-12-20T04:10:23.416Z,96250.16
2022-12-20T04:15:25.394Z,96252.75
2022-12-20T04:20:28.196Z,96249.59
2022-12-20T04:25:44.351Z,96239.28
2022-12-20T04:30:46.393Z,96241.88
2022-12-20T04:35:55.319Z,96232.38
2022-12-20T04:40:59.257Z,96227.25
2022-12-20T04:46:05.346Z,96229.06
2022-12-20T04:51:07.113Z,96232.50
2022-12-20T04:56:09.638Z,96230.81
2022-12-20T05:01:12.105Z,96231.75
2022-12-20T05:06:20.855Z,96217.03
2022-12-20T05:11:22.633Z,96216.84
2022-12-20T05:16:25.614Z,96219.44
2022-12-20T05:21:28.009Z,96225.50
2022-12-20T05:26:33.266Z,96213.19
2022-12-20T05:31:35.927Z,96218.38
2022-12-20T05:36:38.381Z,96207.75
2022-12-20T05:41:41.949Z,96209.66
2022-12-20T05:46:45.014Z,96201.09
2022-12-20T05:51:51.943Z,96200.41
2022-12-20T05:56:59.264Z,96196.94
2022-12-20T06:02:09.040Z,96182.31
2022-12-20T06:07:11.592Z,96185.13
2022-12-20T06:12:13.177Z,96182.09
2022-12-20T06:17:15.595Z,96167.16
2022-12-20T06:22:18.338Z,96168.81
2022-12-20T06:27:24.358Z,96164.53
2022-12-20T06:32:35.680Z,96162.97
2022-12-20T06:37:41.484Z,96160.53
2022-12-20T06:42:43.230Z,96158.13
2022-12-20T06:47:47.547Z,96156.78
2022-12-20T06:52:49.240Z,96154.19
2022-12-20T06:57:51.558Z,96156.78
2022-12-20T07:02:55.692Z,96151.81
2022-12-20T07:07:58.755Z,96148.00
2022-12-20T07:13:00.417Z,96153.84
2022-12-20T07:18:02.213Z,96166.13
2022-12-20T07:23:03.985Z,96182.06
2022-12-20T07:28:05.619Z,96180.41
2022-12-20T07:33:07.218Z,96174.84
2022-12-20T07:38:09.396Z,96169.75
2022-12-20T07:43:11.057Z,96161.56
2022-12-20T07:48:16.306Z,96161.38
2022-12-20T07:53:25.456Z,96170.69
2022-12-20T07:58:32.686Z,96177.78
2022-12-20T08:09:13.112Z,96179.19
2022-12-20T08:14:17.368Z,96170.13
2022-12-20T08:48:03.859Z,96150.88
2022-12-20T08:53:05.423Z,96147.63
2022-12-20T08:58:07.005Z,96131.84
2022-12-20T09:03:08.751Z,96135.16
2022-12-20T09:08:15.446Z,96128.72
2022-12-20T09:13:17.089Z,96125.47
2022-12-20T09:18:18.966Z,96134.13
2022-12-20T09:23:20.728Z,96126.16
2022-12-20T09:28:23.097Z,96143.16
2022-12-20T09:33:24.671Z,96156.81
2022-12-20T09:38:27.543Z,96148.81
2022-12-20T09:43:30.487Z,96132.94
2022-12-20T09:48:35.255Z,96137.91
2022-12-20T09:54:17.301Z,96137.28
2022-12-20T09:59:22.553Z,96133.09
2022-12-20T10:04:30.724Z,96132.22
2022-12-20T10:09:38.331Z,96120.78
2022-12-20T10:15:18.992Z,96114.31
2022-12-20T10:20:37.870Z,96100.19
2022-12-20T10:25:41.083Z,96094.72
2022-12-20T10:30:43.551Z,96092.50
2022-12-20T10:35:45.349Z,96086.59
2022-12-20T10:41:23.911Z,96089.63
2022-12-20T10:46:37.243Z,96079.13
2022-12-20T10:51:51.290Z,96062.75
2022-12-20T10:57:15.015Z,96064.16
2022-12-20T11:02:41.526Z,96048.88
2022-12-20T11:13:34.124Z,96020.31
2022-12-20T11:18:50.963Z,95993.59
2022-12-20T11:24:02.792Z,95992.50
2022-12-20T11:29:21.375Z,95975.94
2022-12-20T11:34:50.818Z,95962.34
2022-12-20T11:40:17.208Z,95958.88
2022-12-20T11:45:26.115Z,95964.34
2022-12-20T11:51:21.332Z,95928.97
2022-12-20T11:56:44.515Z,95917.19
2022-12-20T12:01:50.528Z,95916.09
2022-12-20T12:06:59.801Z,95910.72
2022-12-20T12:12:09.972Z,95907.75
2022-12-20T12:17:26.281Z,95909.00
2022-12-20T12:22:34.380Z,95901.16
2022-12-20T12:27:36.075Z,95888.16
2022-12-20T12:32:54.595Z,95879.56
2022-12-20T12:38:34.762Z,95880.31
2022-12-20T12:43:46.704Z,95888.50
2022-12-20T12:48:58.342Z,95902.91
2022-12-20T12:54:09.098Z,95899.63
2022-12-20T12:59:16.767Z,95898.81
2022-12-20T13:04:18.167Z,95892.00
2022-12-20T13:09:25.899Z,95888.63
2022-12-20T13:14:27.352Z,95901.13
2022-12-20T13:19:28.811Z,95916.13
2022-12-20T13:24:56.767Z,95907.28
2022-12-20T13:30:07.616Z,95899.59
2022-12-20T13:35:24.750Z,95894.91
2022-12-20T13:40:36.639Z,95878.53
2022-12-20T13:45:43.427Z,95887.22
2022-12-20T13:50:54.328Z,95884.38
2022-12-20T13:55:56.278Z,95889.56
2022-12-20T14:01:06.432Z,95896.66
2022-12-20T14:06:13.331Z,95888.94
2022-12-20T14:11:18.125Z,95878.81
2022-12-20T14:16:20.277Z,95882.78
2022-12-20T14:21:22.278Z,95892.84
2022-12-20T14:26:42.890Z,95878.06
2022-12-20T14:31:47.329Z,95875.13
2022-12-20T14:36:50.003Z,95861.41
2022-12-20T14:42:06.794Z,95866.97
2022-12-20T14:47:18.148Z,95863.81
2022-12-20T14:52:39.064Z,95850.09
2022-12-20T14:57:46.396Z,95847.78
2022-12-20T15:02:56.177Z,95845.06
2022-12-20T15:08:15.462Z,95841.50
2022-12-20T15:13:18.772Z,95848.63
2022-12-20T15:18:21.423Z,95845.38
2022-12-20T15:23:23.106Z,95843.28
2022-12-20T15:28:26.406Z,95834.59
2022-12-20T15:33:32.410Z,95837.09
2022-12-20T15:38:55.209Z,95840.03
2022-12-20T15:43:58.367Z,95837.63
2022-12-20T15:49:00.187Z,95835.13
2022-12-20T15:54:05.057Z,95838.56
2022-12-20T15:59:24.844Z,95842.13
2022-12-20T16:04:28.355Z,95852.63
2022-12-20T16:09:29.964Z,95851.66
2022-12-20T16:14:31.530Z,95839.88
2022-12-20T16:19:33.115Z,95835.97
2022-12-20T16:24:34.651Z,95838.47
2022-12-20T16:29:36.383Z,95844.31
2022-12-20T16:34:38.041Z,95839.09
2022-12-20T16:39:40.270Z,95852.91
2022-12-20T16:44:42.301Z,95844.41
2022-12-20T16:49:51.873Z,95837.16
2022-12-20T16:54:54.731Z,95839.22
2022-12-20T16:59:56.450Z,95814.13
2022-12-20T17:04:58.999Z,95814.56
2022-12-20T17:10:00.565Z,95803.06
2022-12-20T17:15:02.177Z,95806.63
2022-12-20T17:20:03.966Z,95810.19
2022-12-20T17:25:05.807Z,95812.59
2022-12-20T17:30:08.065Z,95820.56
2022-12-20T17:35:28.451Z,95808.13
2022-12-20T17:40:30.029Z,95805.63
2022-12-20T17:45:33.724Z,95798.75
2022-12-20T17:50:35.372Z,95785.19
2022-12-20T17:55:37.017Z,95780.16
2022-12-20T18:00:39.629Z,95775.75
2022-12-20T18:05:41.464Z,95763.69
2022-12-20T18:10:43.036Z,95761.69
2022-12-20T18:15:44.642Z,95772.34
2022-12-20T18:20:46.282Z,95770.38
2022-12-20T18:25:47.955Z,95760.63
2022-12-20T18:30:49.521Z,95764.59
2022-12-20T18:36:04.061Z,95754.66
2022-12-20T18:41:07.697Z,95754.44
2022-12-20T18:46:11.893Z,95759.97
2022-12-20T18:56:57.164Z,95753.28
2022-12-20T19:02:01.814Z,95747.13
2022-12-20T19:23:53.644Z,95734.47
2022-12-20T19:46:09.731Z,95750.34
2022-12-20T19:51:13.594Z,95731.03
2022-12-20T20:39:26.856Z,95724.84
2022-12-20T21:11:14.114Z,95764.69
2022-12-20T21:37:51.957Z,95751.91
2022-12-20T21:59:34.895Z,95746.56
2022-12-20T22:04:36.580Z,95742.16
2022-12-20T22:36:25.826Z,95742.09
2022-12-20T23:08:33.832Z,95740.69
2022-12-20T23:53:15.020Z,95729.63
